sensor_id;sensor_type;location;lat;lon;timestamp;pressure;altitude;pressure_sealevel;temperature;humidity
39823;BME280;25499;53.958;10.970;2022-11-13T06:46:30;102815.66;;;4.16;100.00
39823;BME280;25499;53.958;10.970;2022-11-13T06:48:57;102826.16;;;4.19;100.00
39823;BME280;25499;53.958;10.970;2022-11-13T06:51:25;102822.47;;;4.45;100.00
39823;BME280;25499;53.958;10.970;2022-11-13T06:53:51;102815.50;;;4.59;100.00
39823;BME280;25499;53.958;10.970;2022-11-13T06:56:17;102812.34;;;4.64;100.00
39823;BME280;25499;53.958;10.970;2022-11-13T06:58:43;102814.53;;;4.57;100.00
39823;BME280;25499;53.958;10.970;2022-11-13T07:01:18;102818.56;;;4.68;100.00
39823;BME280;25499;53.958;10.970;2022-11-13T07:03:44;102813.91;;;4.77;100.00
39823;BME280;25499;53.958;10.970;2022-11-13T07:06:12;102809.63;;;4.78;100.00
39823;BME280;25499;53.958;10.970;2022-11-13T07:08:41;102814.53;;;4.73;100.00
39823;BME280;25499;53.958;10.970;2022-11-13T07:11:09;102819.16;;;4.79;100.00
39823;BME280;25499;53.958;10.970;2022-11-13T07:13:36;102811.25;;;4.76;100.00
39823;BME280;25499;53.958;10.970;2022-11-13T07:16:02;102812.56;;;4.84;100.00
39823;BME280;25499;53.958;10.970;2022-11-13T07:18:29;102806.19;;;4.77;100.00
39823;BME280;25499;53.958;10.970;2022-11-13T07:20:55;102807.94;;;4.78;100.00
39823;BME280;25499;53.958;10.970;2022-11-13T07:23:21;102817.28;;;4.76;100.00
39823;BME280;25499;53.958;10.970;2022-11-13T07:25:47;102811.19;;;4.91;100.00
39823;BME280;25499;53.958;10.970;2022-11-13T07:28:12;102824.41;;;4.97;100.00
39823;BME280;25499;53.958;10.970;2022-11-13T07:30:37;102829.16;;;5.05;100.00
39823;BME280;25499;53.958;10.970;2022-11-13T07:33:03;102830.25;;;5.09;100.00
39823;BME280;25499;53.958;10.970;2022-11-13T07:35:29;102831.69;;;5.20;100.00
39823;BME280;25499;53.958;10.970;2022-11-13T07:37:55;102824.25;;;5.27;100.00
39823;BME280;25499;53.958;10.970;2022-11-13T07:40:20;102819.41;;;5.33;100.00
39823;BME280;25499;53.958;10.970;2022-11-13T07:42:46;102829.56;;;5.46;100.00
39823;BME280;25499;53.958;10.970;2022-11-13T07:45:11;102824.72;;;5.52;100.00
39823;BME280;25499;53.958;10.970;2022-11-13T07:47:37;102830.81;;;5.71;100.00
39823;BME280;25499;53.958;10.970;2022-11-13T07:50:03;102832.75;;;5.75;100.00
39823;BME280;25499;53.958;10.970;2022-11-13T07:52:28;102837.41;;;5.82;100.00
39823;BME280;25499;53.958;10.970;2022-11-13T07:54:54;102840.31;;;6.05;100.00
39823;BME280;25499;53.958;10.970;2022-11-13T07:57:19;102837.78;;;6.06;100.00
39823;BME280;25499;53.958;10.970;2022-11-13T07:59:47;102843.31;;;6.14;100.00
39823;BME280;25499;53.958;10.970;2022-11-13T08:02:14;102835.50;;;6.30;100.00
39823;BME280;25499;53.958;10.970;2022-11-13T08:04:40;102838.91;;;6.29;100.00
39823;BME280;25499;53.958;10.970;2022-11-13T08:07:06;102835.28;;;6.44;100.00
39823;BME280;25499;53.958;10.970;2022-11-13T08:09:32;102834.75;;;6.51;100.00
39823;BME280;25499;53.958;10.970;2022-11-13T08:11:58;102840.97;;;6.54;100.00
39823;BME280;25499;53.958;10.970;2022-11-13T08:14:23;102842.00;;;6.58;100.00
39823;BME280;25499;53.958;10.970;2022-11-13T08:16:48;102850.13;;;6.66;100.00
39823;BME280;25499;53.958;10.970;2022-11-13T08:19:14;102846.13;;;6.72;100.00
39823;BME280;25499;53.958;10.970;2022-11-13T08:21:39;102857.50;;;6.76;100.00
39823;BME280;25499;53.958;10.970;2022-11-13T08:24:05;102855.13;;;6.81;100.00
39823;BME280;25499;53.958;10.970;2022-11-13T08:26:30;102855.22;;;6.82;100.00
39823;BME280;25499;53.958;10.970;2022-11-13T08:28:55;102847.16;;;6.76;100.00
39823;BME280;25499;53.958;10.970;2022-11-13T08:31:21;102851.00;;;6.84;100.00
39823;BME280;25499;53.958;10.970;2022-11-13T08:33:46;102862.22;;;6.85;100.00
39823;BME280;25499;53.958;10.970;2022-11-13T08:36:12;102850.31;;;6.88;100.00
39823;BME280;25499;53.958;10.970;2022-11-13T08:38:37;102850.06;;;6.84;100.00
39823;BME280;25499;53.958;10.970;2022-11-13T08:41:04;102844.88;;;7.02;100.00
39823;BME280;25499;53.958;10.970;2022-11-13T08:43:30;102851.75;;;7.01;100.00
39823;BME280;25499;53.958;10.970;2022-11-13T08:45:55;102847.84;;;6.91;100.00
39823;BME280;25499;53.958;10.970;2022-11-13T08:48:22;102846.44;;;6.98;100.00
39823;BME280;25499;53.958;10.970;2022-11-13T08:50:54;102847.38;;;7.00;100.00
39823;BME280;25499;53.958;10.970;2022-11-13T08:53:21;102848.06;;;6.96;100.00
39823;BME280;25499;53.958;10.970;2022-11-13T08:55:47;102850.25;;;7.06;100.00
39823;BME280;25499;53.958;10.970;2022-11-13T08:58:13;102853.66;;;7.05;100.00
39823;BME280;25499;53.958;10.970;2022-11-13T09:00:38;102845.22;;;7.09;100.00
39823;BME280;25499;53.958;10.970;2022-11-13T09:03:04;102859.38;;;7.18;100.00
39823;BME280;25499;53.958;10.970;2022-11-13T09:05:30;102861.88;;;7.15;100.00
39823;BME280;25499;53.958;10.970;2022-11-13T09:07:59;102852.38;;;7.15;100.00
39823;BME280;25499;53.958;10.970;2022-11-13T09:10:25;102851.63;;;7.18;100.00
39823;BME280;25499;53.958;10.970;2022-11-13T09:12:58;102852.66;;;7.21;100.00
39823;BME280;25499;53.958;10.970;2022-11-13T09:15:26;102856.00;;;7.19;100.00
39823;BME280;25499;53.958;10.970;2022-11-13T09:17:58;102857.50;;;7.33;100.00
39823;BME280;25499;53.958;10.970;2022-11-13T09:20:25;102847.66;;;7.26;100.00
39823;BME280;25499;53.958;10.970;2022-11-13T09:22:59;102843.50;;;7.29;100.00
39823;BME280;25499;53.958;10.970;2022-11-13T09:25:25;102845.28;;;7.31;100.00
39823;BME280;25499;53.958;10.970;2022-11-13T09:27:53;102842.56;;;7.27;100.00
39823;BME280;25499;53.958;10.970;2022-11-13T09:30:19;102838.69;;;7.37;100.00
39823;BME280;25499;53.958;10.970;2022-11-13T09:32:44;102840.72;;;7.44;100.00
39823;BME280;25499;53.958;10.970;2022-11-13T09:35:10;102844.34;;;7.28;100.00
39823;BME280;25499;53.958;10.970;2022-11-13T09:37:35;102843.81;;;7.16;100.00
39823;BME280;25499;53.958;10.970;2022-11-13T09:40:01;102841.53;;;7.24;100.00
39823;BME280;25499;53.958;10.970;2022-11-13T09:42:28;102837.13;;;7.21;100.00
39823;BME280;25499;53.958;10.970;2022-11-13T09:45:06;102834.19;;;7.14;100.00
39823;BME280;25499;53.958;10.970;2022-11-13T09:47:42;102829.28;;;7.20;100.00
39823;BME280;25499;53.958;10.970;2022-11-13T09:50:28;102837.22;;;7.24;100.00
39823;BME280;25499;53.958;10.970;2022-11-13T09:52:55;102829.19;;;7.38;100.00
39823;BME280;25499;53.958;10.970;2022-11-13T09:55:27;102829.25;;;7.39;100.00
39823;BME280;25499;53.958;10.970;2022-11-13T09:58:06;102830.91;;;7.37;100.00
39823;BME280;25499;53.958;10.970;2022-11-13T10:00:35;102819.59;;;7.35;100.00
39823;BME280;25499;53.958;10.970;2022-11-13T10:08:27;102829.81;;;7.32;100.00
39823;BME280;25499;53.958;10.970;2022-11-13T10:13:59;102829.81;;;7.32;100.00
39823;BME280;25499;53.958;10.970;2022-11-13T10:57:37;102798.41;;;8.30;100.00
39823;BME280;25499;53.958;10.970;2022-11-13T11:00:19;102801.53;;;8.21;100.00
39823;BME280;25499;53.958;10.970;2022-11-13T11:02:48;102796.13;;;8.15;100.00
39823;BME280;25499;53.958;10.970;2022-11-13T11:05:20;102798.78;;;8.16;100.00
39823;BME280;25499;53.958;10.970;2022-11-13T11:07:47;102799.00;;;8.22;100.00
39823;BME280;25499;53.958;10.970;2022-11-13T11:12:54;102793.19;;;8.28;100.00
39823;BME280;25499;53.958;10.970;2022-11-13T11:15:35;102783.38;;;8.21;100.00
39823;BME280;25499;53.958;10.970;2022-11-13T11:18:08;102779.31;;;8.28;100.00
39823;BME280;25499;53.958;10.970;2022-11-13T11:20:58;102785.44;;;8.30;100.00
39823;BME280;25499;53.958;10.970;2022-11-13T11:23:36;102776.13;;;8.35;100.00
39823;BME280;25499;53.958;10.970;2022-11-13T11:28:47;102772.25;;;8.46;100.00
39823;BME280;25499;53.958;10.970;2022-11-13T11:31:30;102767.94;;;8.47;100.00
39823;BME280;25499;53.958;10.970;2022-11-13T11:33:59;102770.13;;;8.58;100.00
39823;BME280;25499;53.958;10.970;2022-11-13T11:36:39;102767.44;;;8.55;100.00
39823;BME280;25499;53.958;10.970;2022-11-13T11:39:25;102762.34;;;8.58;100.00
39823;BME280;25499;53.958;10.970;2022-11-13T11:44:55;102756.00;;;8.50;100.00
39823;BME280;25499;53.958;10.970;2022-11-13T11:47:23;102759.06;;;8.63;100.00
39823;BME280;25499;53.958;10.970;2022-11-13T11:49:49;102754.78;;;8.65;100.00
39823;BME280;25499;53.958;10.970;2022-11-13T11:55:28;102750.31;;;8.61;100.00
39823;BME280;25499;53.958;10.970;2022-11-13T12:00:52;102734.69;;;8.59;100.00
39823;BME280;25499;53.958;10.970;2022-11-13T12:10:09;102727.09;;;8.65;100.00
39823;BME280;25499;53.958;10.970;2022-11-13T12:16:25;102714.63;;;8.79;100.00
39823;BME280;25499;53.958;10.970;2022-11-13T12:39:38;102690.03;;;8.93;100.00
39823;BME280;25499;53.958;10.970;2022-11-13T12:45:50;102685.53;;;8.88;100.00
39823;BME280;25499;53.958;10.970;2022-11-13T12:51:40;102682.34;;;8.96;100.00
39823;BME280;25499;53.958;10.970;2022-11-13T12:54:08;102679.38;;;8.86;100.00
39823;BME280;25499;53.958;10.970;2022-11-13T12:56:36;102682.13;;;8.90;100.00
39823;BME280;25499;53.958;10.970;2022-11-13T13:01:31;102669.75;;;8.83;100.00
39823;BME280;25499;53.958;10.970;2022-11-13T13:04:02;102668.88;;;8.83;100.00
39823;BME280;25499;53.958;10.970;2022-11-13T13:11:52;102665.09;;;8.99;100.00
39823;BME280;25499;53.958;10.970;2022-11-13T13:14:45;102656.50;;;9.00;100.00
39823;BME280;25499;53.958;10.970;2022-11-13T13:17:20;102641.41;;;8.89;100.00
39823;BME280;25499;53.958;10.970;2022-11-13T13:20:00;102643.53;;;9.01;100.00
39823;BME280;25499;53.958;10.970;2022-11-13T13:22:32;102641.59;;;8.95;100.00
39823;BME280;25499;53.958;10.970;2022-11-13T13:25:03;102645.09;;;8.96;100.00
39823;BME280;25499;53.958;10.970;2022-11-13T13:27:36;102634.34;;;8.85;100.00
39823;BME280;25499;53.958;10.970;2022-11-13T13:30:17;102633.25;;;8.78;100.00
39823;BME280;25499;53.958;10.970;2022-11-13T13:35:22;102626.25;;;8.76;100.00
39823;BME280;25499;53.958;10.970;2022-11-13T13:38:12;102614.75;;;8.69;100.00
39823;BME280;25499;53.958;10.970;2022-11-13T13:41:27;102622.59;;;8.71;100.00
39823;BME280;25499;53.958;10.970;2022-11-13T13:46:32;102610.53;;;8.73;100.00
39823;BME280;25499;53.958;10.970;2022-11-13T13:49:19;102616.72;;;8.76;100.00
39823;BME280;25499;53.958;10.970;2022-11-13T13:52:04;102620.38;;;8.82;100.00
39823;BME280;25499;53.958;10.970;2022-11-13T13:54:31;102622.91;;;8.80;100.00
39823;BME280;25499;53.958;10.970;2022-11-13T13:56:57;102618.63;;;8.82;100.00
39823;BME280;25499;53.958;10.970;2022-11-13T13:59:29;102609.03;;;8.80;100.00
39823;BME280;25499;53.958;10.970;2022-11-13T14:01:59;102608.75;;;8.72;100.00
39823;BME280;25499;53.958;10.970;2022-11-13T14:04:27;102606.91;;;8.68;100.00
39823;BME280;25499;53.958;10.970;2022-11-13T14:06:57;102608.06;;;8.76;100.00
39823;BME280;25499;53.958;10.970;2022-11-13T14:09:26;102615.06;;;8.78;100.00
39823;BME280;25499;53.958;10.970;2022-11-13T14:12:17;102603.06;;;8.82;100.00
39823;BME280;25499;53.958;10.970;2022-11-13T14:14:44;102605.75;;;8.85;100.00
39823;BME280;25499;53.958;10.970;2022-11-13T14:17:10;102604.16;;;8.89;100.00
39823;BME280;25499;53.958;10.970;2022-11-13T14:19:36;102597.25;;;8.89;100.00
39823;BME280;25499;53.958;10.970;2022-11-13T14:22:04;102600.72;;;8.90;100.00
39823;BME280;25499;53.958;10.970;2022-11-13T14:24:31;102597.34;;;8.92;100.00
39823;BME280;25499;53.958;10.970;2022-11-13T14:27:07;102599.00;;;8.90;100.00
39823;BME280;25499;53.958;10.970;2022-11-13T14:32:15;102588.88;;;8.98;100.00
39823;BME280;25499;53.958;10.970;2022-11-13T14:34:44;102588.47;;;8.86;100.00
39823;BME280;25499;53.958;10.970;2022-11-13T14:37:24;102589.47;;;8.89;100.00
39823;BME280;25499;53.958;10.970;2022-11-13T14:39:51;102591.97;;;8.86;100.00
39823;BME280;25499;53.958;10.970;2022-11-13T14:42:22;102590.28;;;8.88;100.00
39823;BME280;25499;53.958;10.970;2022-11-13T14:44:49;102583.47;;;8.92;100.00
39823;BME280;25499;53.958;10.970;2022-11-13T14:47:24;102592.94;;;8.90;100.00
39823;BME280;25499;53.958;10.970;2022-11-13T14:49:50;102587.53;;;8.84;100.00
39823;BME280;25499;53.958;10.970;2022-11-13T14:52:20;102588.63;;;8.90;100.00
39823;BME280;25499;53.958;10.970;2022-11-13T14:54:46;102585.31;;;8.94;100.00
39823;BME280;25499;53.958;10.970;2022-11-13T14:57:13;102580.00;;;8.91;100.00
39823;BME280;25499;53.958;10.970;2022-11-13T14:59:39;102583.44;;;8.90;100.00
39823;BME280;25499;53.958;10.970;2022-11-13T15:02:09;102591.28;;;8.92;100.00
39823;BME280;25499;53.958;10.970;2022-11-13T15:04:34;102587.91;;;8.94;100.00
39823;BME280;25499;53.958;10.970;2022-11-13T15:07:00;102588.94;;;9.00;100.00
39823;BME280;25499;53.958;10.970;2022-11-13T15:09:27;102590.59;;;8.98;100.00
39823;BME280;25499;53.958;10.970;2022-11-13T15:11:53;102590.34;;;8.90;100.00
39823;BME280;25499;53.958;10.970;2022-11-13T15:14:20;102587.06;;;8.95;100.00
39823;BME280;25499;53.958;10.970;2022-11-13T15:16:46;102577.53;;;8.96;100.00
39823;BME280;25499;53.958;10.970;2022-11-13T15:19:16;102581.00;;;8.95;100.00
39823;BME280;25499;53.958;10.970;2022-11-13T15:21:43;102577.75;;;9.02;100.00
39823;BME280;25499;53.958;10.970;2022-11-13T15:24:12;102581.16;;;9.00;100.00
39823;BME280;25499;53.958;10.970;2022-11-13T15:26:38;102572.28;;;8.93;100.00
39823;BME280;25499;53.958;10.970;2022-11-13T15:29:04;102574.38;;;9.05;100.00
39823;BME280;25499;53.958;10.970;2022-11-13T15:31:31;102571.78;;;9.05;100.00
39823;BME280;25499;53.958;10.970;2022-11-13T15:33:57;102569.25;;;9.08;100.00
39823;BME280;25499;53.958;10.970;2022-11-13T15:36:29;102566.66;;;9.08;100.00
39823;BME280;25499;53.958;10.970;2022-11-13T15:38:55;102560.38;;;9.00;100.00
39823;BME280;25499;53.958;10.970;2022-11-13T15:41:23;102556.16;;;9.03;100.00
39823;BME280;25499;53.958;10.970;2022-11-13T15:43:52;102553.50;;;9.02;100.00
39823;BME280;25499;53.958;10.970;2022-11-13T15:46:24;102552.69;;;9.04;100.00
39823;BME280;25499;53.958;10.970;2022-11-13T15:48:53;102560.38;;;9.01;100.00
39823;BME280;25499;53.958;10.970;2022-11-13T15:53:53;102554.47;;;9.05;100.00
39823;BME280;25499;53.958;10.970;2022-11-13T15:56:22;102554.47;;;9.05;100.00
39823;BME280;25499;53.958;10.970;2022-11-13T15:58:47;102551.81;;;9.04;100.00
39823;BME280;25499;53.958;10.970;2022-11-13T16:01:14;102551.19;;;9.11;100.00
39823;BME280;25499;53.958;10.970;2022-11-13T16:03:39;102547.75;;;9.12;100.00
39823;BME280;25499;53.958;10.970;2022-11-13T16:06:18;102544.84;;;9.03;100.00
39823;BME280;25499;53.958;10.970;2022-11-13T16:08:46;102535.53;;;9.09;100.00
39823;BME280;25499;53.958;10.970;2022-11-13T16:11:19;102540.03;;;9.13;100.00
39823;BME280;25499;53.958;10.970;2022-11-13T16:13:45;102545.34;;;9.18;100.00
39823;BME280;25499;53.958;10.970;2022-11-13T16:16:16;102544.31;;;9.13;100.00
39823;BME280;25499;53.958;10.970;2022-11-13T16:18:43;102540.13;;;9.17;100.00
39823;BME280;25499;53.958;10.970;2022-11-13T16:21:12;102539.22;;;9.16;100.00
39823;BME280;25499;53.958;10.970;2022-11-13T16:23:38;102528.94;;;9.19;100.00
39823;BME280;25499;53.958;10.970;2022-11-13T16:26:07;102525.56;;;9.22;100.00
39823;BME280;25499;53.958;10.970;2022-11-13T16:28:35;102514.38;;;9.24;100.00
39823;BME280;25499;53.958;10.970;2022-11-13T16:31:00;102522.81;;;9.17;100.00
39823;BME280;25499;53.958;10.970;2022-11-13T16:33:25;102526.44;;;9.22;100.00
39823;BME280;25499;53.958;10.970;2022-11-13T16:35:51;102516.91;;;9.23;100.00
39823;BME280;25499;53.958;10.970;2022-11-13T16:38:16;102515.28;;;9.26;100.00
39823;BME280;25499;53.958;10.970;2022-11-13T16:40:41;102519.50;;;9.23;100.00
39823;BME280;25499;53.958;10.970;2022-11-13T16:43:09;102511.72;;;9.23;100.00
39823;BME280;25499;53.958;10.970;2022-11-13T16:45:36;102514.38;;;9.24;100.00
39823;BME280;25499;53.958;10.970;2022-11-13T16:48:07;102507.59;;;9.29;100.00
39823;BME280;25499;53.958;10.970;2022-11-13T16:50:36;102502.25;;;9.25;100.00
39823;BME280;25499;53.958;10.970;2022-11-13T16:53:03;102507.69;;;9.32;100.00
39823;BME280;25499;53.958;10.970;2022-11-13T16:55:29;102499.06;;;9.33;100.00
39823;BME280;25499;53.958;10.970;2022-11-13T16:57:54;102502.34;;;9.28;100.00
39823;BME280;25499;53.958;10.970;2022-11-13T17:00:19;102496.31;;;9.29;100.00
39823;BME280;25499;53.958;10.970;2022-11-13T17:02:48;102490.25;;;9.30;100.00
39823;BME280;25499;53.958;10.970;2022-11-13T17:05:15;102493.72;;;9.29;100.00
39823;BME280;25499;53.958;10.970;2022-11-13T17:07:41;102497.13;;;9.28;100.00
39823;BME280;25499;53.958;10.970;2022-11-13T17:10:10;102481.50;;;9.26;100.00
39823;BME280;25499;53.958;10.970;2022-11-13T17:12:36;102482.50;;;9.31;100.00
39823;BME280;25499;53.958;10.970;2022-11-13T17:15:03;102482.63;;;9.34;100.00
39823;BME280;25499;53.958;10.970;2022-11-13T17:17:28;102483.13;;;9.23;100.00
39823;BME280;25499;53.958;10.970;2022-11-13T17:19:54;102479.28;;;9.39;100.00
39823;BME280;25499;53.958;10.970;2022-11-13T17:22:20;102468.94;;;9.40;100.00
39823;BME280;25499;53.958;10.970;2022-11-13T17:24:45;102473.09;;;9.35;100.00
39823;BME280;25499;53.958;10.970;2022-11-13T17:27:10;102474.09;;;9.39;100.00
39823;BME280;25499;53.958;10.970;2022-11-13T17:29:36;102471.53;;;9.40;100.00
39823;BME280;25499;53.958;10.970;2022-11-13T17:32:01;102467.94;;;9.37;100.00
39823;BME280;25499;53.958;10.970;2022-11-13T17:34:27;102468.94;;;9.42;100.00
39823;BME280;25499;53.958;10.970;2022-11-13T17:36:52;102476.66;;;9.37;100.00
39823;BME280;25499;53.958;10.970;2022-11-13T17:39:20;102464.78;;;9.47;100.00
39823;BME280;25499;53.958;10.970;2022-11-13T17:41:46;102457.88;;;9.47;100.00
39823;BME280;25499;53.958;10.970;2022-11-13T17:44:11;102456.16;;;9.48;100.00
39823;BME280;25499;53.958;10.970;2022-11-13T17:46:36;102458.56;;;9.42;100.00
39823;BME280;25499;53.958;10.970;2022-11-13T17:49:02;102462.22;;;9.48;100.00
39823;BME280;25499;53.958;10.970;2022-11-13T17:51:28;102462.78;;;9.38;100.00
39823;BME280;25499;53.958;10.970;2022-11-13T17:53:55;102457.03;;;9.48;100.00
39823;BME280;25499;53.958;10.970;2022-11-13T17:56:21;102459.56;;;9.45;100.00
39823;BME280;25499;53.958;10.970;2022-11-13T17:58:46;102456.25;;;9.51;100.00
39823;BME280;25499;53.958;10.970;2022-11-13T18:01:21;102455.44;;;9.53;100.00
39823;BME280;25499;53.958;10.970;2022-11-13T18:03:47;102457.16;;;9.53;100.00
39823;BME280;25499;53.958;10.970;2022-11-13T18:06:19;102452.59;;;9.44;100.00
39823;BME280;25499;53.958;10.970;2022-11-13T18:08:44;102445.53;;;9.40;100.00
39823;BME280;25499;53.958;10.970;2022-11-13T18:11:18;102444.03;;;9.48;100.00
39823;BME280;25499;53.958;10.970;2022-11-13T18:13:45;102438.91;;;9.51;100.00
39823;BME280;25499;53.958;10.970;2022-11-13T18:16:14;102449.31;;;9.51;100.00
39823;BME280;25499;53.958;10.970;2022-11-13T18:18:40;102437.13;;;9.49;100.00
39823;BME280;25499;53.958;10.970;2022-11-13T18:21:20;102437.19;;;9.52;100.00
39823;BME280;25499;53.958;10.970;2022-11-13T18:23:46;102431.94;;;9.49;100.00
39823;BME280;25499;53.958;10.970;2022-11-13T18:26:15;102430.06;;;9.45;100.00
39823;BME280;25499;53.958;10.970;2022-11-13T18:28:41;102433.66;;;9.50;100.00
39823;BME280;25499;53.958;10.970;2022-11-13T18:31:14;102429.38;;;9.50;100.00
39823;BME280;25499;53.958;10.970;2022-11-13T18:33:40;102427.75;;;9.54;100.00
39823;BME280;25499;53.958;10.970;2022-11-13T18:36:06;102428.56;;;9.53;100.00
39823;BME280;25499;53.958;10.970;2022-11-13T18:38:31;102432.94;;;9.54;100.00
39823;BME280;25499;53.958;10.970;2022-11-13T18:43:35;102430.34;;;9.54;100.00
39823;BME280;25499;53.958;10.970;2022-11-13T18:46:04;102437.19;;;9.52;100.00
39823;BME280;25499;53.958;10.970;2022-11-13T18:48:31;102436.22;;;9.48;100.00
39823;BME280;25499;53.958;10.970;2022-11-13T18:50:58;102429.31;;;9.49;100.00
39823;BME280;25499;53.958;10.970;2022-11-13T18:53:25;102437.19;;;9.50;100.00
39823;BME280;25499;53.958;10.970;2022-11-13T18:58:26;102437.19;;;9.50;100.00
39823;BME280;25499;53.958;10.970;2022-11-13T19:00:52;102435.41;;;9.49;100.00
39823;BME280;25499;53.958;10.970;2022-11-13T19:03:17;102432.06;;;9.55;100.00
39823;BME280;25499;53.958;10.970;2022-11-13T19:05:46;102431.13;;;9.51;100.00
39823;BME280;25499;53.958;10.970;2022-11-13T19:08:12;102438.00;;;9.49;100.00
39823;BME280;25499;53.958;10.970;2022-11-13T19:10:39;102437.13;;;9.49;100.00
39823;BME280;25499;53.958;10.970;2022-11-13T19:13:05;102432.84;;;9.51;100.00
39823;BME280;25499;53.958;10.970;2022-11-13T19:15:34;102430.34;;;9.54;100.00
39823;BME280;25499;53.958;10.970;2022-11-13T19:17:59;102424.94;;;9.48;100.00
39823;BME280;25499;53.958;10.970;2022-11-13T19:20:25;102424.03;;;9.46;100.00
39823;BME280;25499;53.958;10.970;2022-11-13T19:22:50;102424.03;;;9.46;100.00
39823;BME280;25499;53.958;10.970;2022-11-13T19:25:15;102419.06;;;9.55;100.00
39823;BME280;25499;53.958;10.970;2022-11-13T19:27:41;102417.25;;;9.51;100.00
39823;BME280;25499;53.958;10.970;2022-11-13T19:30:06;102416.38;;;9.52;100.00
39823;BME280;25499;53.958;10.970;2022-11-13T19:32:32;102406.72;;;9.46;100.00
39823;BME280;25499;53.958;10.970;2022-11-13T19:34:57;102406.66;;;9.45;100.00
39823;BME280;25499;53.958;10.970;2022-11-13T19:37:23;102407.44;;;9.41;100.00
39823;BME280;25499;53.958;10.970;2022-11-13T19:39:48;102410.94;;;9.43;100.00
39823;BME280;25499;53.958;10.970;2022-11-13T19:42:13;102404.06;;;9.45;100.00
39823;BME280;25499;53.958;10.970;2022-11-13T19:44:39;102411.03;;;9.46;100.00
39823;BME280;25499;53.958;10.970;2022-11-13T19:47:04;102412.56;;;9.39;100.00
39823;BME280;25499;53.958;10.970;2022-11-13T19:49:30;102415.31;;;9.44;100.00
39823;BME280;25499;53.958;10.970;2022-11-13T19:51:55;102406.66;;;9.45;100.00
39823;BME280;25499;53.958;10.970;2022-11-13T19:54:21;102408.97;;;9.34;100.00
39823;BME280;25499;53.958;10.970;2022-11-13T19:56:47;102406.47;;;9.37;100.00
39823;BME280;25499;53.958;10.970;2022-11-13T19:59:12;102403.63;;;9.29;100.00
39823;BME280;25499;53.958;10.970;2022-11-13T20:01:38;102413.28;;;9.33;100.00
39823;BME280;25499;53.958;10.970;2022-11-13T20:04:04;102409.84;;;9.34;100.00
39823;BME280;25499;53.958;10.970;2022-11-13T20:06:30;102408.09;;;9.33;100.00
39823;BME280;25499;53.958;10.970;2022-11-13T20:09:00;102414.84;;;9.27;100.00
39823;BME280;25499;53.958;10.970;2022-11-13T20:11:26;102408.69;;;9.25;100.00
39823;BME280;25499;53.958;10.970;2022-11-13T20:13:52;102402.63;;;9.24;100.00
39823;BME280;25499;53.958;10.970;2022-11-13T20:16:17;102404.09;;;9.16;100.00
39823;BME280;25499;53.958;10.970;2022-11-13T20:18:45;102402.50;;;9.21;100.00
39823;BME280;25499;53.958;10.970;2022-11-13T20:21:11;102399.81;;;9.17;100.00
39823;BME280;25499;53.958;10.970;2022-11-13T20:23:37;102405.81;;;9.15;100.00
39823;BME280;25499;53.958;10.970;2022-11-13T20:26:06;102403.13;;;9.12;100.00
39823;BME280;25499;53.958;10.970;2022-11-13T20:28:32;102404.09;;;9.16;100.00
39823;BME280;25499;53.958;10.970;2022-11-13T20:31:06;102399.88;;;9.20;100.00
39823;BME280;25499;53.958;10.970;2022-11-13T20:33:33;102399.41;;;9.04;100.00
39823;BME280;25499;53.958;10.970;2022-11-13T20:36:00;102400.22;;;9.02;99.92
39823;BME280;25499;53.958;10.970;2022-11-13T20:38:25;102407.25;;;9.06;100.00
39823;BME280;25499;53.958;10.970;2022-11-13T20:40:51;102411.50;;;9.02;100.00
39823;BME280;25499;53.958;10.970;2022-11-13T20:43:16;102407.09;;;9.00;100.00
39823;BME280;25499;53.958;10.970;2022-11-13T20:45:42;102399.16;;;8.95;100.00
39823;BME280;25499;53.958;10.970;2022-11-13T20:48:07;102403.75;;;9.04;99.90
39823;BME280;25499;53.958;10.970;2022-11-13T20:50:36;102399.09;;;8.93;99.75
39823;BME280;25499;53.958;10.970;2022-11-13T20:53:02;102403.59;;;8.99;99.78
39823;BME280;25499;53.958;10.970;2022-11-13T20:55:29;102396.72;;;9.00;99.60
39823;BME280;25499;53.958;10.970;2022-11-13T20:57:54;102395.69;;;8.94;99.42
